Time;durP1;ratioP1;P1;durP2;ratioP2;P2;SDS_P1;SDS_P2;PMS_P1;PMS_P2;Temp;Humidity;BMP_temperature;BMP_pressure;BME280_temperature;BME280_humidity;BME280_pressure;Samples;Min_cycle;Max_cycle;Signal;HPM_P1;HPM_P2
2021/01/16 00:01:06;;;;;;;11.83;5.80;;;2.60;91.30;;;;;;5030444;28;20042;-75
2021/01/16 00:03:33;;;;;;;12.37;6.60;;;2.60;91.30;;;;;;5042574;28;20096;-74
2021/01/16 00:06:00;;;;;;;10.60;5.63;;;2.60;91.30;;;;;;5014293;28;20069;-75
2021/01/16 00:08:28;;;;;;;12.70;6.70;;;2.60;91.30;;;;;;5013843;28;20441;-76
2021/01/16 00:10:56;;;;;;;13.40;7.17;;;2.70;91.30;;;;;;5010058;28;20117;-75
2021/01/16 00:13:28;;;;;;;12.70;6.90;;;2.60;91.20;;;;;;5015301;28;20045;-76
2021/01/16 00:15:55;;;;;;;13.07;7.22;;;2.60;91.20;;;;;;5013810;28;20042;-76
2021/01/16 00:18:24;;;;;;;12.67;6.20;;;2.60;91.20;;;;;;5016321;28;20042;-76
2021/01/16 00:20:53;;;;;;;9.43;5.03;;;2.60;91.30;;;;;;5046594;28;20774;-75
2021/01/16 00:23:25;;;;;;;10.90;5.47;;;2.60;91.40;;;;;;5014785;28;20108;-76
2021/01/16 00:25:52;;;;;;;13.40;5.20;;;2.70;91.40;;;;;;5046585;28;20100;-75
2021/01/16 00:28:21;;;;;;;7.87;3.97;;;2.70;91.40;;;;;;5014251;28;20041;-75
2021/01/16 00:30:48;;;;;;;7.73;4.33;;;2.70;91.50;;;;;;5029966;28;20038;-75
2021/01/16 00:33:19;;;;;;;7.57;4.13;;;2.70;91.80;;;;;;5014404;28;20048;-76
2021/01/16 00:35:47;;;;;;;8.30;4.27;;;2.70;91.50;;;;;;4997173;28;20060;-76
2021/01/16 00:38:14;;;;;;;7.67;4.03;;;2.70;91.50;;;;;;5014759;28;20050;-76
2021/01/16 00:40:41;;;;;;;8.13;4.00;;;2.70;91.50;;;;;;5004057;28;20062;-76
2021/01/16 00:43:11;;;;;;;7.20;3.90;;;2.70;91.50;;;;;;5014254;28;20434;-75
2021/01/16 00:45:40;;;;;;;8.17;3.63;;;2.70;91.50;;;;;;5014596;28;20467;-75
2021/01/16 00:48:12;;;;;;;7.83;4.17;;;2.70;91.50;;;;;;4997053;28;20046;-75
2021/01/16 00:50:44;;;;;;;8.20;3.97;;;2.70;91.50;;;;;;5013390;28;20053;-76
2021/01/16 00:53:11;;;;;;;7.37;3.47;;;2.70;91.50;;;;;;5013470;28;20049;-76
2021/01/16 00:55:51;;;;;;;6.60;2.83;;;2.70;91.50;;;;;;5013102;28;20545;-76
2021/01/16 00:58:19;;;;;;;6.07;3.10;;;2.80;91.60;;;;;;5006214;28;20105;-76
2021/01/16 01:00:52;;;;;;;7.47;3.40;;;2.80;91.60;;;;;;5025754;28;20096;-77
2021/01/16 01:03:24;;;;;;;7.13;3.17;;;2.80;91.60;;;;;;5013221;28;20050;-75
2021/01/16 01:05:51;;;;;;;6.97;3.70;;;2.70;91.50;;;;;;5019343;28;20095;-76
2021/01/16 01:08:26;;;;;;;7.70;3.80;;;2.70;91.50;;;;;;5016134;28;20386;-77
2021/01/16 01:10:53;;;;;;;7.43;3.60;;;2.80;91.50;;;;;;5017436;28;20530;-76
2021/01/16 01:13:19;;;;;;;6.17;3.27;;;2.80;91.50;;;;;;5015343;28;20069;-72
2021/01/16 01:15:46;;;;;;;8.77;3.97;;;2.80;91.50;;;;;;5008629;28;20331;-72
2021/01/16 01:18:13;;;;;;;8.33;4.17;;;2.80;91.50;;;;;;5008799;28;20033;-72
2021/01/16 01:20:39;;;;;;;9.07;4.33;;;2.70;91.50;;;;;;5028867;28;20037;-72
2021/01/16 01:23:06;;;;;;;9.90;3.87;;;2.70;91.40;;;;;;4992653;28;20053;-72
2021/01/16 01:25:32;;;;;;;7.47;4.00;;;2.80;91.50;;;;;;5027255;28;20042;-72
2021/01/16 01:28:01;;;;;;;8.57;4.50;;;2.70;91.40;;;;;;5019352;28;20120;-72
2021/01/16 01:30:31;;;;;;;8.77;4.67;;;2.70;91.40;;;;;;5032679;28;20037;-72
2021/01/16 01:32:59;;;;;;;8.83;4.00;;;2.70;91.40;;;;;;5031582;28;20052;-72
2021/01/16 01:35:27;;;;;;;6.97;3.70;;;2.70;91.40;;;;;;5018063;28;20042;-72
2021/01/16 01:37:56;;;;;;;10.40;4.53;;;2.70;91.50;;;;;;5020397;28;20116;-72
2021/01/16 01:40:26;;;;;;;8.70;4.53;;;2.70;91.50;;;;;;5024940;28;20053;-72
2021/01/16 01:42:55;;;;;;;7.50;3.53;;;2.80;91.50;;;;;;5019285;28;20046;-72
2021/01/16 01:45:23;;;;;;;10.83;4.83;;;2.80;91.50;;;;;;5013760;28;20065;-72
2021/01/16 01:47:50;;;;;;;10.00;5.10;;;2.80;91.40;;;;;;5028105;28;20049;-72
2021/01/16 01:50:19;;;;;;;9.20;4.53;;;2.80;91.30;;;;;;5011164;28;20056;-72
2021/01/16 01:52:53;;;;;;;8.63;5.00;;;2.80;91.30;;;;;;5046702;28;20125;-72
2021/01/16 01:55:20;;;;;;;6.87;3.40;;;2.80;91.30;;;;;;5011294;28;20071;-72
2021/01/16 01:57:53;;;;;;;6.67;3.53;;;2.80;91.30;;;;;;5017787;28;20087;-72
2021/01/16 02:00:21;;;;;;;;;;;2.80;91.40;;;;;;5015570;28;20054;-72
2021/01/16 02:02:49;;;;;;;8.67;3.00;;;2.80;91.40;;;;;;5028325;28;19921;-72
2021/01/16 02:05:16;;;;;;;6.70;2.57;;;2.70;91.50;;;;;;5020112;28;20046;-72
2021/01/16 02:07:46;;;;;;;4.80;1.93;;;2.80;91.50;;;;;;5016872;28;20589;-72
2021/01/16 02:10:25;;;;;;;5.93;2.47;;;2.80;91.50;;;;;;5032138;28;20103;-72
2021/01/16 02:12:56;;;;;;;5.83;2.47;;;2.80;91.50;;;;;;5017869;28;20049;-76
2021/01/16 02:15:41;;;;;;;6.90;3.60;;;2.80;91.40;;;;;;5033253;28;20041;-76
2021/01/16 02:18:27;;;;;;;9.13;4.17;;;2.80;91.30;;;;;;5014770;28;20096;-76
2021/01/16 02:20:56;;;;;;;10.27;4.93;;;2.80;91.20;;;;;;5021851;28;20046;-76
2021/01/16 02:23:28;;;;;;;7.50;4.33;;;2.70;91.20;;;;;;5030278;28;20037;-76
2021/01/16 02:26:17;;;;;;;9.95;4.47;;;2.70;91.10;;;;;;5033225;28;20508;-76
2021/01/16 02:28:51;;;;;;;8.67;5.10;;;2.70;91.00;;;;;;5014585;28;20053;-76
2021/01/16 02:31:19;;;;;;;8.43;4.07;;;2.70;91.10;;;;;;5026780;28;20041;-76
2021/01/16 02:33:48;;;;;;;7.77;4.73;;;2.70;91.10;;;;;;5010249;28;20099;-76
2021/01/16 02:36:41;;;;;;;9.77;5.27;;;2.70;91.00;;;;;;5020933;28;20440;-76
2021/01/16 02:39:28;;;;;;;12.33;6.17;;;2.70;90.80;;;;;;5009086;28;20464;-76
2021/01/16 02:42:22;;;;;;;11.17;5.47;;;2.70;90.70;;;;;;5014977;28;20524;-76
2021/01/16 02:45:05;;;;;;;8.77;4.70;;;2.70;90.80;;;;;;5027296;28;20103;-76
2021/01/16 02:47:46;;;;;;;8.77;4.90;;;2.60;91.00;;;;;;5026632;28;20050;-76
2021/01/16 02:50:19;;;;;;;7.03;3.57;;;2.60;90.80;;;;;;5013698;28;20053;-76
2021/01/16 02:52:47;;;;;;;9.02;4.32;;;2.70;90.90;;;;;;5021337;28;20073;-76
2021/01/16 02:55:16;;;;;;;9.00;4.30;;;2.70;91.00;;;;;;5028927;28;20050;-77
2021/01/16 02:57:43;;;;;;;10.43;5.00;;;2.70;90.90;;;;;;5019359;28;20038;-76
2021/01/16 03:00:15;;;;;;;9.83;6.00;;;2.70;90.80;;;;;;5031569;28;20060;-76
2021/01/16 03:02:42;;;;;;;12.20;6.57;;;2.70;90.70;;;;;;5030795;28;20088;-76
2021/01/16 03:05:09;;;;;;;14.13;5.77;;;2.60;90.60;;;;;;5014951;28;20099;-76
2021/01/16 03:07:36;;;;;;;10.50;6.03;;;2.70;90.60;;;;;;5015616;28;20482;-76
2021/01/16 03:10:07;;;;;;;12.97;7.27;;;2.60;90.60;;;;;;4977509;28;20478;-77
2021/01/16 03:12:34;;;;;;;11.63;6.33;;;2.60;90.50;;;;;;5011242;28;20042;-76
2021/01/16 03:15:14;;;;;;;11.20;5.23;;;2.60;90.50;;;;;;5026848;28;20481;-76
2021/01/16 03:17:46;;;;;;;10.37;4.80;;;2.70;90.70;;;;;;5019024;28;20046;-76
2021/01/16 03:20:34;;;;;;;11.43;5.30;;;2.70;90.70;;;;;;5021082;28;20148;-76
2021/01/16 03:23:01;;;;;;;8.20;4.23;;;2.60;90.60;;;;;;5032425;28;20486;-76
2021/01/16 03:25:31;;;;;;;8.50;4.10;;;2.60;90.70;;;;;;5031126;28;20047;-76
2021/01/16 03:27:59;;;;;;;7.60;4.27;;;2.60;90.70;;;;;;5030929;28;20053;-75
2021/01/16 03:30:27;;;;;;;8.33;3.90;;;2.70;90.80;;;;;;5032437;28;20502;-76
2021/01/16 03:32:56;;;;;;;8.70;4.30;;;2.70;90.80;;;;;;5017408;28;20430;-76
2021/01/16 03:35:25;;;;;;;10.47;4.67;;;2.70;90.80;;;;;;5011435;28;20069;-72
2021/01/16 03:37:54;;;;;;;7.80;3.83;;;2.70;90.80;;;;;;5013244;28;20521;-72
2021/01/16 03:40:21;;;;;;;11.07;5.93;;;2.70;90.80;;;;;;5026289;28;20046;-72
2021/01/16 03:42:48;;;;;;;11.37;5.73;;;2.70;90.60;;;;;;5026057;28;20121;-72
2021/01/16 03:45:18;;;;;;;8.13;4.50;;;2.70;90.70;;;;;;5013501;28;20133;-72
2021/01/16 03:47:45;;;;;;;8.97;5.00;;;2.70;90.70;;;;;;5025898;28;20069;-72
2021/01/16 03:50:11;;;;;;;9.53;4.33;;;2.60;90.70;;;;;;5028341;28;20073;-72
2021/01/16 03:52:40;;;;;;;8.23;3.87;;;2.60;90.70;;;;;;4999975;28;20050;-72
2021/01/16 03:55:09;;;;;;;7.87;3.60;;;2.60;90.70;;;;;;5028958;28;20049;-76
2021/01/16 03:57:36;;;;;;;7.80;3.73;;;2.60;90.80;;;;;;5018764;28;20116;-76
2021/01/16 04:00:12;;;;;;;6.17;3.43;;;2.60;90.80;;;;;;5027905;28;20056;-76
2021/01/16 04:02:38;;;;;;;6.33;2.90;;;2.70;90.80;;;;;;5030673;28;20092;-76
2021/01/16 04:05:07;;;;;;;5.33;2.90;;;2.70;90.90;;;;;;5059565;28;20524;-76
2021/01/16 04:07:34;;;;;;;6.43;2.90;;;2.70;90.90;;;;;;5016460;28;20084;-76
2021/01/16 04:10:00;;;;;;;7.57;3.00;;;2.70;91.00;;;;;;5014487;28;20049;-76
2021/01/16 04:12:30;;;;;;;7.17;2.77;;;2.70;90.90;;;;;;5019954;28;20045;-72
2021/01/16 04:14:57;;;;;;;7.33;3.00;;;2.70;90.90;;;;;;5025896;28;20092;-72
2021/01/16 04:17:23;;;;;;;7.17;3.30;;;2.70;91.00;;;;;;5014588;28;20046;-72
2021/01/16 04:19:50;;;;;;;5.67;2.97;;;2.70;90.90;;;;;;5031000;28;20691;-72
2021/01/16 04:22:17;;;;;;;6.33;2.90;;;2.70;90.90;;;;;;5029279;28;20042;-72
2021/01/16 04:24:43;;;;;;;5.00;2.50;;;2.70;91.00;;;;;;5007969;28;20050;-72
2021/01/16 04:27:09;;;;;;;6.30;3.23;;;2.70;91.00;;;;;;5013108;28;20038;-72
2021/01/16 04:29:36;;;;;;;5.87;2.87;;;2.70;91.00;;;;;;5023403;28;20049;-72
2021/01/16 04:32:03;;;;;;;5.47;2.90;;;2.70;91.00;;;;;;5022080;28;20053;-72
2021/01/16 04:34:29;;;;;;;6.83;3.40;;;2.70;91.00;;;;;;5021557;28;20049;-72
2021/01/16 04:36:56;;;;;;;6.80;3.30;;;2.70;90.90;;;;;;5016198;28;20041;-72
2021/01/16 04:39:22;;;;;;;7.60;3.40;;;2.70;91.00;;;;;;5029570;28;20486;-72
2021/01/16 04:41:53;;;;;;;8.70;4.23;;;2.70;90.90;;;;;;5004345;28;20160;-72
2021/01/16 04:44:22;;;;;;;9.80;5.17;;;2.70;90.80;;;;;;5023199;28;20044;-72
2021/01/16 04:46:54;;;;;;;9.20;5.40;;;2.70;90.80;;;;;;5011474;28;20444;-72
2021/01/16 04:49:21;;;;;;;9.07;4.18;;;2.70;90.80;;;;;;5010995;28;20057;-72
2021/01/16 04:51:51;;;;;;;9.27;4.50;;;2.70;90.80;;;;;;5014759;28;20049;-72
2021/01/16 04:54:17;;;;;;;6.80;3.50;;;2.60;90.90;;;;;;5023397;28;20050;-72
2021/01/16 04:56:48;;;;;;;6.93;3.60;;;2.60;90.90;;;;;;5012371;28;20054;-72
2021/01/16 04:59:15;;;;;;;7.67;3.63;;;2.70;90.90;;;;;;5026932;28;20049;-72
2021/01/16 05:01:46;;;;;;;7.37;3.63;;;2.70;90.90;;;;;;5007829;28;20041;-72
2021/01/16 05:04:16;;;;;;;9.03;4.60;;;2.70;90.90;;;;;;5030230;28;20080;-72
2021/01/16 05:06:46;;;;;;;11.40;4.97;;;2.70;90.80;;;;;;5025308;28;20401;-72
2021/01/16 05:09:13;;;;;;;10.17;4.23;;;2.70;90.80;;;;;;5022013;28;20068;-72
2021/01/16 05:12:12;;;;;;;7.63;3.83;;;2.60;90.90;;;;;;5020141;28;20049;-72
2021/01/16 05:15:01;;;;;;;6.23;3.40;;;2.70;90.90;;;;;;5017775;28;20053;-72
2021/01/16 05:17:39;;;;;;;7.65;2.90;;;2.70;91.00;;;;;;5033043;28;20116;-76
2021/01/16 05:20:11;;;;;;;7.23;3.43;;;2.70;91.00;;;;;;5034365;28;20092;-76
2021/01/16 05:22:37;;;;;;;9.33;4.50;;;2.70;91.00;;;;;;5025054;28;20049;-76
2021/01/16 05:25:07;;;;;;;9.40;4.97;;;2.60;90.90;;;;;;5031553;28;20037;-76
2021/01/16 05:27:35;;;;;;;8.23;4.37;;;2.60;90.80;;;;;;4997552;28;20412;-76
2021/01/16 05:30:05;;;;;;;7.93;4.17;;;2.60;90.80;;;;;;4996417;28;20060;-76
2021/01/16 05:32:32;;;;;;;9.07;4.47;;;2.70;90.90;;;;;;5015655;28;20042;-76
2021/01/16 05:35:15;;;;;;;9.50;4.47;;;2.60;90.90;;;;;;5018595;28;20077;-76
2021/01/16 05:37:42;;;;;;;;;;;2.60;90.90;;;;;;5009825;28;20112;-76
2021/01/16 05:40:09;;;;;;;8.33;3.50;;;2.60;91.20;;;;;;5015819;28;19968;-76
2021/01/16 05:42:37;;;;;;;6.73;3.10;;;2.60;91.00;;;;;;5013329;28;20077;-76
2021/01/16 05:45:10;;;;;;;7.23;3.57;;;2.70;91.00;;;;;;5011182;28;20045;-76
2021/01/16 05:47:42;;;;;;;6.63;4.00;;;2.70;90.90;;;;;;5026072;28;20042;-75
2021/01/16 05:50:10;;;;;;;8.35;4.80;;;2.70;90.90;;;;;;5028242;28;20041;-75
2021/01/16 05:52:41;;;;;;;9.53;4.97;;;2.60;90.80;;;;;;5025672;28;20041;-75
2021/01/16 05:55:08;;;;;;;9.87;4.90;;;2.60;90.80;;;;;;5026561;28;20045;-75
2021/01/16 05:57:40;;;;;;;9.00;4.80;;;2.60;90.80;;;;;;5013956;28;20049;-76
2021/01/16 06:00:08;;;;;;;9.97;5.47;;;2.60;90.80;;;;;;5026320;28;20053;-76
2021/01/16 06:02:36;;;;;;;10.67;5.43;;;2.60;90.80;;;;;;5017653;28;20276;-76
2021/01/16 06:05:05;;;;;;;10.93;5.30;;;2.60;90.70;;;;;;5016588;28;20041;-76
2021/01/16 06:07:37;;;;;;;7.57;4.50;;;2.60;90.80;;;;;;5001125;28;20033;-72
2021/01/16 06:10:12;;;;;;;10.63;5.20;;;2.60;90.80;;;;;;5023301;28;20079;-72
2021/01/16 06:12:40;;;;;;;11.60;5.37;;;2.60;90.70;;;;;;5013185;28;20545;-76
2021/01/16 06:15:15;;;;;;;12.67;6.67;;;2.60;90.70;;;;;;5004976;28;20053;-77
2021/01/16 06:17:49;;;;;;;11.73;6.47;;;2.60;90.60;;;;;;5009430;28;20046;-76
2021/01/16 06:20:22;;;;;;;10.83;6.10;;;2.60;90.50;;;;;;5017967;28;20065;-76
2021/01/16 06:22:51;;;;;;;10.52;5.65;;;2.60;90.60;;;;;;5015906;28;20117;-75
2021/01/16 06:25:23;;;;;;;11.67;6.10;;;2.60;90.70;;;;;;5008053;28;20115;-72
2021/01/16 06:27:51;;;;;;;12.20;6.63;;;2.60;90.60;;;;;;5040255;28;20121;-75
2021/01/16 06:30:20;;;;;;;10.80;6.20;;;2.60;90.60;;;;;;5011445;28;20054;-76
2021/01/16 06:32:53;;;;;;;10.10;5.33;;;2.60;90.60;;;;;;5014041;28;20540;-76
2021/01/16 06:35:21;;;;;;;12.80;6.93;;;2.60;90.60;;;;;;5020794;28;20049;-76
2021/01/16 06:37:51;;;;;;;12.90;6.00;;;2.60;90.60;;;;;;5017691;28;20034;-76
2021/01/16 06:40:32;;;;;;;10.67;6.03;;;2.60;90.60;;;;;;5016656;28;20041;-76
2021/01/16 06:43:01;;;;;;;9.90;5.83;;;2.60;90.60;;;;;;5022658;28;20130;-76
2021/01/16 06:45:29;;;;;;;12.37;6.00;;;2.60;90.50;;;;;;5017085;28;20041;-76
2021/01/16 06:48:00;;;;;;;9.07;5.47;;;2.60;90.50;;;;;;5009733;28;20048;-77
2021/01/16 06:50:36;;;;;;;10.67;5.57;;;2.60;90.60;;;;;;5028355;28;20064;-76
2021/01/16 06:53:03;;;;;;;10.93;5.63;;;2.60;90.60;;;;;;5029420;28;20038;-76
2021/01/16 06:55:36;;;;;;;10.33;6.53;;;2.60;90.90;;;;;;5001642;28;20046;-76
2021/01/16 06:58:19;;;;;;;13.17;5.90;;;2.60;90.50;;;;;;5031523;28;20045;-76
2021/01/16 07:00:55;;;;;;;11.77;6.30;;;2.60;90.50;;;;;;5025944;28;20041;-76
2021/01/16 07:03:27;;;;;;;10.10;5.50;;;2.60;90.50;;;;;;5023018;28;20046;-75
2021/01/16 07:05:57;;;;;;;12.60;6.13;;;2.60;90.50;;;;;;5017281;28;20088;-75
2021/01/16 07:08:23;;;;;;;11.33;6.60;;;2.60;90.40;;;;;;5013603;28;20045;-76
2021/01/16 07:10:52;;;;;;;10.10;5.47;;;2.60;90.40;;;;;;5004647;28;20041;-76
2021/01/16 07:13:19;;;;;;;11.93;6.13;;;2.60;90.50;;;;;;5031961;28;20054;-75
2021/01/16 07:15:47;;;;;;;11.87;6.10;;;2.60;90.50;;;;;;5031689;28;20517;-76
2021/01/16 07:18:15;;;;;;;12.10;7.20;;;2.60;90.50;;;;;;5018024;28;20045;-76
2021/01/16 07:20:42;;;;;;;12.67;6.90;;;2.60;90.40;;;;;;5022018;28;20042;-76
2021/01/16 07:23:09;;;;;;;12.00;6.83;;;2.60;90.40;;;;;;5031497;28;20045;-76
2021/01/16 07:25:36;;;;;;;14.63;8.10;;;2.60;90.40;;;;;;5030581;28;20371;-76
2021/01/16 07:28:04;;;;;;;13.67;7.37;;;2.60;90.30;;;;;;5017744;28;20092;-76
2021/01/16 07:30:32;;;;;;;13.20;6.23;;;2.60;90.30;;;;;;5029118;28;20049;-76
2021/01/16 07:33:01;;;;;;;14.40;7.33;;;2.60;90.30;;;;;;5030760;28;20116;-76
2021/01/16 07:35:29;;;;;;;11.60;6.13;;;2.60;90.40;;;;;;5027839;28;20073;-72
2021/01/16 07:37:56;;;;;;;11.40;5.57;;;2.60;90.40;;;;;;5024151;28;20508;-72
2021/01/16 07:40:26;;;;;;;11.33;6.40;;;2.60;90.40;;;;;;5001757;28;20049;-72
2021/01/16 07:42:55;;;;;;;14.00;6.67;;;2.60;90.40;;;;;;5021966;28;20030;-72
2021/01/16 07:45:33;;;;;;;9.50;4.97;;;2.60;90.40;;;;;;5031845;28;20116;-72
2021/01/16 07:48:04;;;;;;;9.53;4.97;;;2.60;90.40;;;;;;5016159;28;20038;-72
2021/01/16 07:50:37;;;;;;;10.32;5.80;;;2.60;90.40;;;;;;5028446;28;20056;-72
2021/01/16 07:53:06;;;;;;;9.57;5.07;;;2.60;90.50;;;;;;5004567;28;20544;-72
2021/01/16 07:55:35;;;;;;;10.67;5.83;;;2.60;90.50;;;;;;5027568;28;20435;-72
2021/01/16 07:58:12;;;;;;;13.80;7.43;;;2.60;90.40;;;;;;5016938;28;20072;-72
2021/01/16 08:00:44;;;;;;;10.80;6.37;;;2.60;90.20;;;;;;5016050;28;20093;-72
2021/01/16 08:03:45;;;;;;;12.38;7.07;;;2.60;90.20;;;;;;5028741;28;20053;-72
2021/01/16 08:06:24;;;;;;;12.70;6.33;;;2.70;90.30;;;;;;5012296;28;20422;-72
2021/01/16 08:09:16;;;;;;;11.60;6.60;;;2.70;90.20;;;;;;5028269;28;20464;-72
2021/01/16 08:11:53;;;;;;;12.60;6.57;;;2.70;90.20;;;;;;5028366;28;20132;-72
2021/01/16 08:14:22;;;;;;;9.47;5.40;;;2.70;90.30;;;;;;5034580;28;20045;-76
2021/01/16 08:16:57;;;;;;;12.60;6.90;;;2.70;90.20;;;;;;5018099;28;20072;-76
2021/01/16 08:19:32;;;;;;;11.13;6.10;;;2.70;90.10;;;;;;5021778;28;20042;-76
2021/01/16 08:22:00;;;;;;;10.33;5.70;;;2.70;90.20;;;;;;5016803;28;20508;-78
2021/01/16 08:24:30;;;;;;;10.07;5.67;;;2.70;90.30;;;;;;5015437;28;20034;-76
2021/01/16 08:27:00;;;;;;;11.57;6.00;;;2.80;90.30;;;;;;5020921;28;20040;-76
2021/01/16 08:29:29;;;;;;;11.60;6.00;;;2.80;90.20;;;;;;5029323;28;20037;-76
2021/01/16 08:32:09;;;;;;;10.50;5.57;;;2.80;90.20;;;;;;5032144;28;20486;-76
2021/01/16 08:34:55;;;;;;;11.93;6.53;;;2.80;90.20;;;;;;5020853;28;20042;-76
2021/01/16 08:37:33;;;;;;;13.80;7.40;;;2.80;90.10;;;;;;5008666;28;20191;-76
2021/01/16 08:40:03;;;;;;;13.50;7.03;;;2.80;90.00;;;;;;5020114;28;20071;-72
2021/01/16 08:42:29;;;;;;;11.53;6.60;;;2.80;89.80;;;;;;5017925;28;20049;-72
2021/01/16 08:44:58;;;;;;;11.37;6.47;;;2.80;90.00;;;;;;5014878;28;20080;-76
2021/01/16 08:47:25;;;;;;;10.77;5.93;;;2.80;90.00;;;;;;5000991;28;20437;-76
2021/01/16 08:49:52;;;;;;;11.17;5.67;;;2.80;90.00;;;;;;5002654;28;20128;-76
2021/01/16 08:52:37;;;;;;;11.57;6.10;;;2.90;90.00;;;;;;5014383;28;20092;-76
2021/01/16 08:55:05;;;;;;;12.37;6.20;;;2.90;90.00;;;;;;5027432;28;20103;-76
2021/01/16 08:57:33;;;;;;;12.17;6.33;;;3.00;90.00;;;;;;5016587;28;20862;-76
2021/01/16 09:00:23;;;;;;;12.43;6.50;;;3.00;90.00;;;;;;5028137;28;20045;-76
2021/01/16 09:03:16;;;;;;;11.77;6.70;;;3.00;90.00;;;;;;5016858;28;20042;-76
2021/01/16 09:05:44;;;;;;;12.80;6.78;;;3.00;89.60;;;;;;5024449;28;20592;-76
2021/01/16 09:08:45;;;;;;;12.20;6.87;;;3.00;89.70;;;;;;5024156;28;20088;-76
2021/01/16 09:11:23;;;;;;;16.97;8.20;;;3.10;89.70;;;;;;5016623;28;20052;-76
2021/01/16 09:13:50;;;;;;;14.33;8.60;;;3.10;89.20;;;;;;5016635;28;20697;-76
2021/01/16 09:16:34;;;;;;;15.57;7.97;;;3.00;88.90;;;;;;5011762;28;20042;-76
2021/01/16 09:19:03;;;;;;;14.73;8.93;;;3.10;89.10;;;;;;5028935;28;20124;-78
2021/01/16 09:21:30;;;;;;;13.77;8.53;;;3.00;88.80;;;;;;5027456;28;20050;-76
2021/01/16 09:23:57;;;;;;;13.00;7.60;;;3.10;88.80;;;;;;5014008;28;20040;-72
2021/01/16 09:26:26;;;;;;;11.20;6.70;;;3.10;89.20;;;;;;5019916;28;20069;-76
2021/01/16 09:28:55;;;;;;;12.97;7.87;;;3.10;89.30;;;;;;4996774;28;20454;-77
2021/01/16 09:31:26;;;;;;;15.77;8.70;;;3.10;89.00;;;;;;5012650;28;20387;-73
2021/01/16 09:33:54;;;;;;;14.50;8.30;;;3.10;88.50;;;;;;5012884;28;20045;-72
2021/01/16 09:36:39;;;;;;;14.67;8.63;;;3.10;88.70;;;;;;5001525;28;20111;-72
2021/01/16 09:39:20;;;;;;;14.77;8.97;;;3.10;88.50;;;;;;5013879;28;20034;-72
2021/01/16 09:42:11;;;;;;;16.67;9.27;;;3.10;88.10;;;;;;5013965;28;20046;-72
2021/01/16 09:44:41;;;;;;;17.20;9.50;;;3.10;87.90;;;;;;5029546;28;20046;-72
2021/01/16 09:47:26;;;;;;;15.23;8.43;;;3.10;87.90;;;;;;5014914;28;20511;-72
2021/01/16 09:50:00;;;;;;;16.37;9.47;;;3.10;88.20;;;;;;5032270;28;20401;-72
2021/01/16 09:52:27;;;;;;;18.70;10.13;;;3.10;88.00;;;;;;5017453;28;20052;-73
2021/01/16 09:54:55;;;;;;;15.50;9.00;;;3.10;87.80;;;;;;5020575;28;20069;-72
2021/01/16 09:57:34;;;;;;;14.43;8.87;;;3.20;88.00;;;;;;5014576;28;20049;-72
2021/01/16 10:00:14;;;;;;;16.47;10.00;;;3.20;87.80;;;;;;5023461;28;20158;-72
2021/01/16 10:02:45;;;;;;;17.83;10.77;;;3.20;87.20;;;;;;5026880;28;20049;-72
2021/01/16 10:05:33;;;;;;;16.23;10.20;;;3.20;87.10;;;;;;5019728;28;20532;-72
2021/01/16 10:08:01;;;;;;;17.70;10.57;;;3.20;87.00;;;;;;5001865;28;20044;-72
2021/01/16 10:10:40;;;;;;;17.13;9.70;;;3.20;87.20;;;;;;5020041;28;20448;-76
2021/01/16 10:13:11;;;;;;;15.77;9.67;;;3.20;87.70;;;;;;5005337;28;20034;-71
2021/01/16 10:15:47;;;;;;;16.73;9.57;;;3.20;87.30;;;;;;5014063;28;20532;-72
2021/01/16 10:18:18;;;;;;;17.40;10.27;;;3.30;87.10;;;;;;5013375;28;20561;-72
2021/01/16 10:20:59;;;;;;;17.03;9.70;;;3.30;86.70;;;;;;5031713;28;20041;-72
2021/01/16 10:23:30;;;;;;;16.13;9.03;;;3.30;86.80;;;;;;5025587;28;20050;-73
2021/01/16 10:26:09;;;;;;;16.77;8.80;;;3.30;86.90;;;;;;5004603;28;20057;-72
2021/01/16 10:28:38;;;;;;;15.40;8.53;;;3.30;86.90;;;;;;5030082;28;20366;-75
2021/01/16 10:31:08;;;;;;;15.73;7.80;;;3.30;86.80;;;;;;5020101;28;20072;-75
2021/01/16 10:33:44;;;;;;;16.57;8.80;;;3.30;87.00;;;;;;5027123;28;20042;-76
2021/01/16 10:36:13;;;;;;;17.07;9.63;;;3.30;86.30;;;;;;5014845;28;20049;-75
2021/01/16 10:38:49;;;;;;;15.03;8.03;;;3.30;86.30;;;;;;5030622;28;20124;-75
2021/01/16 10:41:32;;;;;;;16.60;9.07;;;3.30;86.60;;;;;;5031252;28;20041;-76
2021/01/16 10:44:00;;;;;;;15.70;9.30;;;3.30;86.60;;;;;;5025634;28;20129;-76
2021/01/16 10:46:35;;;;;;;15.40;8.83;;;3.40;86.50;;;;;;5023991;28;20045;-76
2021/01/16 10:49:29;;;;;;;16.77;8.67;;;3.40;86.40;;;;;;5033452;28;20091;-76
2021/01/16 10:52:03;;;;;;;13.63;8.40;;;3.50;86.50;;;;;;5020396;28;20073;-76
2021/01/16 10:54:30;;;;;;;15.70;8.73;;;3.50;86.40;;;;;;5026597;28;20034;-76
2021/01/16 10:56:59;;;;;;;15.87;8.63;;;3.50;86.30;;;;;;4997439;28;20047;-76
2021/01/16 10:59:27;;;;;;;15.43;8.87;;;3.50;86.30;;;;;;5036390;28;20564;-76
2021/01/16 11:01:54;;;;;;;16.57;10.13;;;3.50;85.80;;;;;;5034956;28;20126;-76
2021/01/16 11:04:23;;;;;;;20.87;10.73;;;3.50;85.70;;;;;;5032077;28;20046;-76
2021/01/16 11:06:58;;;;;;;19.73;11.77;;;3.50;85.00;;;;;;5000875;28;20564;-76
2021/01/16 11:10:04;;;;;;;21.73;11.03;;;3.50;84.70;;;;;;5028371;28;20084;-75
2021/01/16 11:12:31;;;;;;;20.07;11.00;;;3.50;84.60;;;;;;5014240;28;20144;-74
2021/01/16 11:14:59;;;;;;;18.87;9.97;;;3.50;84.40;;;;;;5030920;28;20041;-71
2021/01/16 11:17:50;;;;;;;16.63;9.13;;;3.50;84.40;;;;;;5021364;28;20510;-72
2021/01/16 11:20:23;;;;;;;21.23;10.97;;;3.50;84.70;;;;;;5020162;28;20056;-71
2021/01/16 11:23:12;;;;;;;15.68;9.10;;;3.50;84.30;;;;;;5018589;28;20128;-71
2021/01/16 11:25:43;;;;;;;18.20;9.83;;;3.60;84.30;;;;;;5018471;28;20477;-71
2021/01/16 11:28:12;;;;;;;15.97;8.93;;;3.50;84.10;;;;;;5033974;28;20041;-71
2021/01/16 11:30:42;;;;;;;18.23;9.33;;;3.60;83.90;;;;;;5017974;28;20042;-72
2021/01/16 11:33:14;;;;;;;15.37;8.53;;;3.60;83.60;;;;;;5003195;28;20409;-71
2021/01/16 11:35:42;;;;;;;16.55;7.70;;;3.50;83.10;;;;;;5009551;28;20045;-71
2021/01/16 11:38:37;;;;;;;15.73;8.70;;;3.50;83.10;;;;;;5014920;28;20049;-71
2021/01/16 11:41:05;;;;;;;16.83;8.53;;;3.60;82.40;;;;;;5003289;28;20405;-70
2021/01/16 11:43:32;;;;;;;15.03;8.00;;;3.60;82.90;;;;;;5025806;28;20057;-71
2021/01/16 11:46:17;;;;;;;17.33;8.63;;;3.60;82.50;;;;;;5001561;28;20066;-70
2021/01/16 11:48:44;;;;;;;17.40;9.20;;;3.60;82.00;;;;;;5022281;28;20044;-72
2021/01/16 11:51:19;;;;;;;17.27;9.77;;;3.50;80.60;;;;;;5002416;28;20545;-72
2021/01/16 11:53:51;;;;;;;16.67;9.00;;;3.50;80.70;;;;;;5016714;28;20497;-72
2021/01/16 11:56:24;;;;;;;14.87;8.57;;;3.50;80.60;;;;;;5029575;28;20049;-71
2021/01/16 11:58:52;;;;;;;15.97;8.07;;;3.50;81.20;;;;;;5016156;28;20128;-76
2021/01/16 12:01:20;;;;;;;14.13;7.77;;;3.50;81.30;;;;;;5024740;28;20057;-76
2021/01/16 12:03:46;;;;;;;11.47;6.93;;;3.50;81.40;;;;;;5015197;28;20126;-76
2021/01/16 12:06:15;;;;;;;12.70;7.40;;;3.60;81.90;;;;;;5035031;28;20144;-74
2021/01/16 12:08:47;;;;;;;14.67;8.40;;;3.60;81.50;;;;;;5035115;28;20100;-75
2021/01/16 12:11:15;;;;;;;14.97;8.17;;;3.60;81.30;;;;;;5035020;28;20346;-76
2021/01/16 12:13:48;;;;;;;13.23;7.00;;;3.60;81.50;;;;;;5026543;28;20076;-76
2021/01/16 12:16:15;;;;;;;15.85;8.05;;;3.60;81.40;;;;;;5029239;28;20045;-76
2021/01/16 12:18:42;;;;;;;15.43;8.23;;;3.60;81.30;;;;;;5026177;28;20049;-75
2021/01/16 12:21:09;;;;;;;13.67;7.47;;;3.60;81.10;;;;;;5031051;28;20095;-75
2021/01/16 12:23:45;;;;;;;13.93;8.00;;;3.60;81.10;;;;;;5007319;28;20041;-75
2021/01/16 12:26:16;;;;;;;14.50;7.80;;;3.60;80.40;;;;;;5017017;28;20444;-75
2021/01/16 12:28:49;;;;;;;12.93;7.70;;;3.60;79.90;;;;;;5012662;28;20080;-75
2021/01/16 12:31:21;;;;;;;13.93;8.40;;;3.60;80.10;;;;;;5017459;28;20050;-74
2021/01/16 12:33:52;;;;;;;16.67;7.95;;;3.60;80.30;;;;;;5001076;28;20489;-75
2021/01/16 12:36:20;;;;;;;14.97;7.37;;;3.60;80.60;;;;;;5022503;28;20044;-75
2021/01/16 12:38:50;;;;;;;13.67;7.67;;;3.60;80.70;;;;;;5033839;28;20037;-76
2021/01/16 12:41:25;;;;;;;13.77;8.17;;;3.60;79.90;;;;;;5032843;28;20582;-75
2021/01/16 12:43:53;;;;;;;16.80;8.37;;;3.60;80.30;;;;;;5032921;28;20539;-75
2021/01/16 12:46:21;;;;;;;13.57;8.00;;;3.60;79.70;;;;;;5022367;28;20116;-75
2021/01/16 12:48:49;;;;;;;11.53;6.80;;;3.60;80.30;;;;;;5014284;28;20482;-75
2021/01/16 12:51:17;;;;;;;10.63;6.20;;;3.60;80.30;;;;;;5022655;28;20077;-76
2021/01/16 12:53:44;;;;;;;11.20;6.33;;;3.60;80.40;;;;;;5017068;28;20046;-75
2021/01/16 12:56:21;;;;;;;11.00;5.80;;;3.60;80.70;;;;;;5025001;28;20044;-75
2021/01/16 12:58:49;;;;;;;13.90;6.93;;;3.60;80.90;;;;;;5009834;28;20460;-75
2021/01/16 13:01:20;;;;;;;11.60;7.17;;;3.60;80.80;;;;;;5033529;28;20069;-75
2021/01/16 13:03:48;;;;;;;12.40;7.33;;;3.60;79.70;;;;;;5015952;28;20069;-74
2021/01/16 13:06:16;;;;;;;13.67;7.63;;;3.60;79.70;;;;;;5025370;28;20034;-77
2021/01/16 13:08:46;;;;;;;14.00;6.90;;;3.50;79.70;;;;;;5012837;28;20478;-75
2021/01/16 13:11:22;;;;;;;12.77;7.37;;;3.50;79.80;;;;;;5018674;28;20042;-76
2021/01/16 13:13:59;;;;;;;12.70;6.70;;;3.50;78.20;;;;;;5024947;28;20050;-77